< < Back
Terminal Aerodrome Forecast


Current Version              Previous Versions:   1  2  3  4  5  6  7  8  9  

Terminal Aerodrome Forecast

203
FTUS42 KTAE 261120
TAFABY
TAF
KABY 261120Z 2612/2712 00000KT P6SM SKC
     FM261500 09010KT P6SM SCT250=

Latest METAR

938
SAUS70 KWBC 261300 RRD
MTRABY
METAR KABY 261253Z 07004KT 10SM CLR 25/22 A3010 RMK AO2 SLP190
T02500217


USA.gov is the U.S. government's official web portal to all federal, state and local government web resources and services.